createdAt,value
2023-04-03T00:01:31.802Z,3.67
2023-04-03T00:05:34.806Z,4.73
2023-04-03T00:09:37.537Z,4.00
2023-04-03T00:13:41.866Z,3.83
2023-04-03T00:17:44.658Z,5.23
2023-04-03T00:21:47.491Z,4.47
2023-04-03T00:25:50.329Z,3.20
2023-04-03T00:29:55.684Z,3.33
2023-04-03T00:33:58.495Z,4.70
2023-04-03T00:38:01.235Z,5.20
2023-04-03T00:42:04.015Z,3.73
2023-04-03T00:46:08.080Z,4.97
2023-04-03T00:50:11.927Z,3.63
2023-04-03T00:54:14.874Z,3.73
2023-04-03T00:58:19.692Z,5.67
2023-04-03T01:02:24.141Z,4.23
2023-04-03T01:06:36.342Z,6.43
2023-04-03T01:10:44.450Z,4.23
2023-04-03T01:14:48.258Z,5.90
2023-04-03T01:18:52.602Z,3.77
2023-04-03T01:23:01.069Z,3.73
2023-04-03T01:27:05.892Z,4.07
2023-04-03T01:31:17.362Z,3.63
2023-04-03T01:35:23.905Z,3.20
2023-04-03T01:39:28.586Z,3.20
2023-04-03T01:43:32.071Z,5.57
2023-04-03T01:47:34.917Z,5.70
2023-04-03T01:51:39.200Z,3.03
2023-04-03T01:55:41.959Z,4.90
2023-04-03T01:59:44.911Z,4.93
2023-04-03T02:03:47.823Z,4.23
2023-04-03T02:07:52.018Z,5.33
2023-04-03T02:11:55.085Z,4.10
2023-04-03T02:15:57.874Z,4.40
2023-04-03T02:20:00.702Z,6.47
2023-04-03T02:24:04.910Z,4.00
2023-04-03T02:28:08.193Z,5.43
2023-04-03T02:32:10.902Z,3.43
2023-04-03T02:36:14.609Z,2.93
2023-04-03T02:40:21.858Z,3.23
2023-04-03T02:44:25.385Z,4.37
2023-04-03T02:48:29.412Z,5.00
2023-04-03T02:52:32.806Z,3.00
2023-04-03T02:56:37.033Z,4.77
2023-04-03T03:00:40.554Z,4.70
2023-04-03T03:04:43.705Z,5.40
2023-04-03T03:08:46.537Z,4.57
2023-04-03T03:12:51.745Z,3.30
2023-04-03T03:16:54.423Z,2.87
2023-04-03T03:20:58.996Z,3.47
2023-04-03T03:25:02.081Z,3.03
2023-04-03T03:29:06.205Z,3.23
2023-04-03T03:33:09.183Z,3.87
2023-04-03T03:37:11.866Z,3.83
2023-04-03T03:41:14.643Z,2.67
2023-04-03T03:45:21.277Z,5.10
2023-04-03T03:49:24.421Z,4.73
2023-04-03T03:53:27.579Z,4.67
2023-04-03T03:57:34.390Z,5.73
2023-04-03T04:01:38.690Z,3.47
2023-04-03T04:05:41.567Z,5.27
2023-04-03T04:09:44.546Z,3.70
2023-04-03T04:13:47.406Z,4.17
2023-04-03T04:17:54.296Z,3.20
2023-04-03T04:21:57.898Z,3.53
2023-04-03T04:26:00.835Z,2.70
2023-04-03T04:30:08.047Z,5.27
2023-04-03T04:34:13.885Z,3.77
2023-04-03T04:38:16.758Z,3.93
2023-04-03T04:42:19.664Z,3.63
2023-04-03T04:46:25.171Z,5.80
2023-04-03T04:50:34.308Z,4.73
2023-04-03T04:54:37.300Z,5.37
2023-04-03T04:58:40.351Z,3.97
2023-04-03T05:02:44.304Z,6.60
2023-04-03T05:06:49.263Z,3.70
2023-04-03T05:10:57.094Z,4.40
2023-04-03T05:15:02.485Z,3.73
2023-04-03T05:19:07.216Z,4.67
2023-04-03T05:23:12.751Z,4.60
2023-04-03T05:27:17.796Z,7.77
2023-04-03T05:31:25.319Z,5.77
2023-04-03T05:35:28.427Z,4.73
2023-04-03T05:39:36.138Z,7.00
2023-04-03T05:43:41.513Z,7.03
2023-04-03T05:47:46.190Z,3.43
2023-04-03T05:51:49.042Z,4.17
2023-04-03T05:56:01.997Z,4.23
2023-04-03T06:00:10.480Z,6.57
2023-04-03T06:04:17.100Z,3.13
2023-04-03T06:08:20.254Z,5.00
2023-04-03T06:12:24.770Z,4.17
2023-04-03T06:16:27.905Z,5.80
2023-04-03T06:20:30.582Z,5.50
2023-04-03T06:24:33.653Z,4.13
2023-04-03T06:28:38.431Z,5.57
2023-04-03T06:32:41.456Z,3.10
2023-04-03T06:36:45.898Z,5.77
2023-04-03T06:40:49.066Z,4.70
2023-04-03T06:44:53.167Z,4.13
2023-04-03T06:48:56.030Z,4.37
2023-04-03T06:52:58.942Z,3.40
2023-04-03T06:57:01.753Z,4.37
2023-04-03T07:01:06.434Z,2.90
2023-04-03T07:05:09.945Z,7.97
2023-04-03T07:09:12.785Z,5.67
2023-04-03T07:13:15.620Z,4.90
2023-04-03T07:17:19.696Z,5.30
2023-04-03T07:21:22.421Z,3.13
2023-04-03T07:25:25.260Z,3.60
2023-04-03T07:29:28.385Z,4.20
2023-04-03T07:33:33.064Z,3.67
2023-04-03T07:37:35.775Z,2.70
2023-04-03T07:41:38.541Z,3.60
2023-04-03T07:45:41.369Z,5.20
2023-04-03T07:49:45.682Z,3.03
2023-04-03T07:53:49.473Z,6.03
2023-04-03T07:57:52.333Z,2.20
2023-04-03T08:01:55.074Z,2.93
2023-04-03T08:06:06.060Z,2.03
2023-04-03T08:10:10.599Z,2.97
2023-04-03T08:14:17.408Z,2.07
2023-04-03T08:18:22.698Z,4.50
2023-04-03T08:22:27.276Z,2.00
2023-04-03T08:26:30.085Z,4.10
2023-04-03T08:30:32.856Z,2.83
2023-04-03T08:34:37.794Z,2.57
2023-04-03T08:38:41.909Z,2.10
2023-04-03T08:42:56.113Z,3.00
2023-04-03T08:47:13.515Z,3.23
2023-04-03T08:51:19.618Z,2.37
2023-04-03T08:55:29.081Z,1.70
2023-04-03T08:59:35.935Z,2.40
2023-04-03T09:03:41.765Z,1.80
2023-04-03T09:07:49.969Z,2.57
2023-04-03T09:12:02.590Z,1.73
2023-04-03T09:16:17.354Z,1.40
2023-04-03T09:20:27.384Z,2.33
2023-04-03T09:24:31.044Z,1.67
2023-04-03T09:28:43.118Z,1.53
2023-04-03T09:32:51.473Z,1.70
2023-04-03T09:36:56.582Z,1.60
2023-04-03T09:41:07.222Z,1.60
2023-04-03T09:45:25.636Z,2.30
2023-04-03T09:49:29.850Z,1.83
2023-04-03T09:53:37.451Z,1.60
2023-04-03T09:57:40.548Z,1.63
2023-04-03T10:01:59.958Z,1.57
2023-04-03T10:06:04.371Z,2.07
2023-04-03T10:10:21.041Z,2.10
2023-04-03T10:14:24.148Z,1.93
2023-04-03T10:18:40.596Z,1.47
2023-04-03T10:22:51.045Z,1.73
2023-04-03T10:27:00.154Z,1.63
2023-04-03T10:31:08.681Z,1.53
2023-04-03T10:35:21.280Z,2.67
2023-04-03T10:39:33.628Z,1.40
2023-04-03T10:43:44.438Z,2.13
2023-04-03T10:47:58.126Z,1.50
2023-04-03T10:52:09.878Z,1.53
2023-04-03T10:56:18.294Z,2.27
2023-04-03T11:00:24.808Z,1.50
2023-04-03T11:04:31.080Z,1.77
2023-04-03T11:08:40.421Z,2.77
2023-04-03T11:12:47.916Z,1.83
2023-04-03T11:17:01.547Z,2.20
2023-04-03T11:21:10.280Z,2.07
2023-04-03T11:25:23.814Z,2.43
2023-04-03T11:29:35.503Z,1.50
2023-04-03T11:33:50.377Z,2.40
2023-04-03T11:37:54.727Z,1.70
2023-04-03T11:42:17.056Z,3.37
2023-04-03T11:46:20.645Z,2.03
2023-04-03T11:50:45.016Z,2.07
2023-04-03T11:54:50.645Z,2.17
2023-04-03T11:59:28.519Z,2.10
2023-04-03T12:03:56.877Z,2.17
2023-04-03T12:08:18.190Z,1.57
2023-04-03T12:12:32.301Z,1.60
2023-04-03T12:16:46.937Z,1.87
2023-04-03T12:20:57.875Z,1.70
2023-04-03T12:25:39.691Z,2.00
2023-04-03T12:29:49.286Z,2.90
2023-04-03T12:34:19.786Z,3.83
2023-04-03T12:38:58.695Z,2.57
2023-04-03T12:43:18.612Z,3.47
2023-04-03T12:47:29.253Z,3.77
2023-04-03T12:51:39.042Z,2.40
2023-04-03T12:55:41.881Z,2.53
2023-04-03T12:59:47.467Z,2.20
2023-04-03T13:03:54.166Z,2.60
2023-04-03T13:08:02.680Z,2.00
2023-04-03T13:12:13.607Z,2.80
2023-04-03T13:16:19.020Z,3.33
2023-04-03T13:20:25.663Z,2.63
2023-04-03T13:24:31.588Z,2.63
2023-04-03T13:28:36.167Z,2.00
2023-04-03T13:32:38.863Z,5.43
2023-04-03T13:36:43.068Z,1.97
2023-04-03T13:40:52.411Z,2.33
2023-04-03T13:45:12.815Z,2.23
2023-04-03T13:49:22.833Z,2.63
2023-04-03T13:53:26.250Z,2.27
2023-04-03T13:57:30.725Z,2.23
2023-04-03T14:01:46.777Z,2.37
2023-04-03T14:05:49.616Z,1.83
2023-04-03T14:09:53.077Z,3.50
2023-04-03T14:13:59.698Z,3.63
2023-04-03T14:18:04.436Z,2.77
2023-04-03T14:22:15.847Z,1.93
2023-04-03T14:26:21.419Z,3.03
2023-04-03T14:30:28.100Z,2.00
2023-04-03T14:34:31.153Z,2.60
2023-04-03T14:38:33.968Z,2.17
2023-04-03T14:42:38.989Z,4.47
2023-04-03T14:46:56.261Z,9.13
2023-04-03T14:51:05.573Z,2.17
2023-04-03T14:55:09.988Z,2.50
2023-04-03T14:59:15.485Z,2.40
2023-04-03T15:03:22.168Z,2.23
2023-04-03T15:07:27.406Z,2.97
2023-04-03T15:11:30.210Z,2.43
2023-04-03T15:15:38.007Z,3.13
2023-04-03T15:19:42.731Z,2.50
2023-04-03T15:23:45.448Z,4.40
2023-04-03T15:27:48.177Z,4.07
2023-04-03T15:31:54.360Z,2.80
2023-04-03T15:36:06.744Z,6.70
2023-04-03T15:40:12.139Z,2.13
2023-04-03T15:44:14.988Z,3.27
2023-04-03T15:48:17.845Z,1.80
2023-04-03T15:52:23.216Z,3.10
2023-04-03T15:56:26.074Z,2.27
2023-04-03T16:00:29.190Z,2.17
2023-04-03T16:04:32.378Z,3.57
2023-04-03T16:08:37.569Z,1.90
2023-04-03T16:12:41.853Z,2.90
2023-04-03T16:16:44.616Z,3.60
2023-04-03T16:20:47.405Z,4.23
2023-04-03T16:24:51.783Z,3.10
2023-04-03T16:28:54.724Z,2.27
2023-04-03T16:32:58.660Z,2.80
2023-04-03T16:37:06.865Z,2.57
2023-04-03T16:41:15.982Z,2.70
2023-04-03T16:45:18.732Z,2.20
2023-04-03T16:49:21.555Z,2.10
2023-04-03T16:53:25.690Z,1.87
2023-04-03T16:57:29.853Z,4.40
2023-04-03T17:01:32.812Z,3.13
2023-04-03T17:05:36.187Z,2.10
2023-04-03T17:09:39.038Z,2.23
2023-04-03T17:13:43.163Z,2.30
2023-04-03T17:17:46.054Z,3.43
2023-04-03T17:21:48.906Z,2.47
2023-04-03T17:25:51.705Z,2.97
2023-04-03T17:29:55.810Z,3.80
2023-04-03T17:34:01.593Z,2.83
2023-04-03T17:38:04.769Z,2.70
2023-04-03T17:42:07.690Z,2.53
2023-04-03T17:46:12.625Z,2.33
2023-04-03T17:50:16.233Z,2.33
2023-04-03T17:54:18.991Z,2.17
2023-04-03T17:58:21.744Z,2.60
2023-04-03T18:02:26.177Z,2.40
2023-04-03T18:06:31.753Z,4.80
2023-04-03T18:10:37.365Z,3.63
2023-04-03T18:14:41.942Z,3.20
2023-04-03T18:18:46.124Z,4.00
2023-04-03T18:22:49.360Z,3.80
2023-04-03T18:26:56.634Z,5.17
2023-04-03T18:31:00.013Z,3.53
2023-04-03T18:35:04.657Z,4.70
2023-04-03T18:39:07.490Z,3.83
2023-04-03T18:43:10.769Z,3.03
2023-04-03T18:47:13.881Z,8.90
2023-04-03T18:51:17.985Z,3.47
2023-04-03T18:55:20.857Z,3.87
2023-04-03T18:59:23.604Z,4.03
2023-04-03T19:03:26.656Z,4.00
2023-04-03T19:07:31.093Z,5.27
2023-04-03T19:11:35.020Z,3.80
2023-04-03T19:15:38.045Z,4.97
2023-04-03T19:19:40.974Z,4.93
2023-04-03T19:23:45.689Z,5.30
2023-04-03T19:27:49.031Z,4.87
2023-04-03T19:31:52.558Z,4.07
2023-04-03T19:35:55.545Z,6.33
2023-04-03T19:39:59.819Z,4.27
2023-04-03T19:44:02.671Z,4.77
2023-04-03T19:48:05.901Z,5.30
2023-04-03T19:52:08.645Z,4.23
2023-04-03T19:56:12.848Z,5.33
2023-04-03T20:00:16.433Z,4.03
2023-04-03T20:04:19.355Z,5.40
2023-04-03T20:08:22.956Z,5.67
2023-04-03T20:12:27.467Z,5.80
2023-04-03T20:16:30.721Z,3.77
2023-04-03T20:20:34.116Z,4.17
2023-04-03T20:24:36.773Z,4.00
2023-04-03T20:28:41.125Z,4.23
2023-04-03T20:32:44.059Z,4.50
2023-04-03T20:36:49.625Z,5.20
2023-04-03T20:40:52.772Z,4.57
2023-04-03T20:44:58.358Z,4.83
2023-04-03T20:49:01.185Z,3.60
2023-04-03T20:53:03.976Z,4.23
2023-04-03T20:57:06.910Z,4.27
2023-04-03T21:01:19.703Z,4.50
2023-04-03T21:05:26.278Z,5.50
2023-04-03T21:10:07.387Z,5.67
2023-04-03T21:14:48.421Z,6.00
2023-04-03T21:19:10.376Z,6.07
2023-04-03T21:23:13.825Z,5.00
2023-04-03T21:27:16.628Z,4.70
2023-04-03T21:31:20.314Z,3.77
2023-04-03T21:35:24.458Z,8.20
2023-04-03T21:39:27.261Z,6.73
2023-04-03T21:43:32.196Z,5.13
2023-04-03T21:47:35.534Z,5.80
2023-04-03T21:51:39.853Z,7.13
2023-04-03T21:55:42.954Z,5.77
2023-04-03T21:59:46.417Z,5.80
2023-04-03T22:03:49.258Z,6.13
2023-04-03T22:07:53.948Z,5.93
2023-04-03T22:11:57.087Z,6.50
2023-04-03T22:16:01.604Z,6.20
2023-04-03T22:20:04.480Z,8.67
2023-04-03T22:24:09.406Z,6.87
2023-04-03T22:28:13.868Z,5.47
2023-04-03T22:32:16.663Z,7.37
2023-04-03T22:36:19.355Z,6.90
2023-04-03T22:40:23.397Z,6.90
2023-04-03T22:44:29.654Z,6.27
2023-04-03T22:48:35.341Z,7.10
2023-04-03T22:52:38.068Z,5.63
2023-04-03T22:56:42.090Z,5.77
2023-04-03T23:00:44.831Z,5.33
2023-04-03T23:04:47.957Z,6.33
2023-04-03T23:08:51.046Z,5.67
2023-04-03T23:12:55.030Z,5.60
2023-04-03T23:17:05.412Z,5.93
2023-04-03T23:21:09.314Z,5.63
2023-04-03T23:25:12.301Z,4.50
2023-04-03T23:29:16.379Z,4.87
2023-04-03T23:33:19.117Z,6.90
2023-04-03T23:37:21.871Z,5.10
2023-04-03T23:41:24.983Z,5.80
2023-04-03T23:45:29.073Z,4.90
2023-04-03T23:49:32.138Z,5.60
2023-04-03T23:53:35.819Z,5.77
2023-04-03T23:57:38.589Z,5.03
